sensor_id;sensor_type;location;lat;lon;timestamp;temperature;humidity
28761;DHT22;15917;50.014;8.352;2023-05-20T00:00:22;15.80;99.90
28761;DHT22;15917;50.014;8.352;2023-05-20T00:02:48;15.80;99.90
28761;DHT22;15917;50.014;8.352;2023-05-20T00:05:13;15.80;99.90
28761;DHT22;15917;50.014;8.352;2023-05-20T00:07:39;15.80;99.90
28761;DHT22;15917;50.014;8.352;2023-05-20T00:10:05;15.80;99.90
28761;DHT22;15917;50.014;8.352;2023-05-20T00:12:31;15.70;99.90
28761;DHT22;15917;50.014;8.352;2023-05-20T00:14:57;15.70;99.90
28761;DHT22;15917;50.014;8.352;2023-05-20T00:17:22;15.70;99.90
28761;DHT22;15917;50.014;8.352;2023-05-20T00:19:50;15.70;99.90
28761;DHT22;15917;50.014;8.352;2023-05-20T00:22:15;15.60;99.90
28761;DHT22;15917;50.014;8.352;2023-05-20T00:24:41;15.60;99.90
28761;DHT22;15917;50.014;8.352;2023-05-20T00:27:06;15.60;99.90
28761;DHT22;15917;50.014;8.352;2023-05-20T00:29:32;15.60;99.90
28761;DHT22;15917;50.014;8.352;2023-05-20T00:31:58;15.60;99.90
28761;DHT22;15917;50.014;8.352;2023-05-20T00:34:24;15.60;99.90
28761;DHT22;15917;50.014;8.352;2023-05-20T00:36:49;15.50;99.90
28761;DHT22;15917;50.014;8.352;2023-05-20T00:39:16;15.60;99.90
28761;DHT22;15917;50.014;8.352;2023-05-20T00:41:41;15.50;99.90
28761;DHT22;15917;50.014;8.352;2023-05-20T00:44:07;15.50;99.90
28761;DHT22;15917;50.014;8.352;2023-05-20T00:46:33;15.50;99.90
28761;DHT22;15917;50.014;8.352;2023-05-20T00:49:00;15.50;99.90
28761;DHT22;15917;50.014;8.352;2023-05-20T00:51:25;15.40;99.90
28761;DHT22;15917;50.014;8.352;2023-05-20T00:53:52;15.40;99.90
28761;DHT22;15917;50.014;8.352;2023-05-20T00:56:17;15.50;99.90
28761;DHT22;15917;50.014;8.352;2023-05-20T00:58:44;15.40;99.90
28761;DHT22;15917;50.014;8.352;2023-05-20T01:01:10;15.40;99.90
28761;DHT22;15917;50.014;8.352;2023-05-20T01:03:36;15.40;99.90
28761;DHT22;15917;50.014;8.352;2023-05-20T01:06:02;15.40;99.90
28761;DHT22;15917;50.014;8.352;2023-05-20T01:08:28;15.30;99.90
28761;DHT22;15917;50.014;8.352;2023-05-20T01:13:40;15.30;99.90
28761;DHT22;15917;50.014;8.352;2023-05-20T01:16:09;15.20;99.90
28761;DHT22;15917;50.014;8.352;2023-05-20T01:18:37;15.20;99.90
28761;DHT22;15917;50.014;8.352;2023-05-20T01:21:05;15.20;99.90
28761;DHT22;15917;50.014;8.352;2023-05-20T01:23:41;15.10;99.90
28761;DHT22;15917;50.014;8.352;2023-05-20T01:26:08;15.20;99.90
28761;DHT22;15917;50.014;8.352;2023-05-20T01:28:35;15.20;99.90
28761;DHT22;15917;50.014;8.352;2023-05-20T01:31:02;15.20;99.90
28761;DHT22;15917;50.014;8.352;2023-05-20T01:33:30;15.10;99.90
28761;DHT22;15917;50.014;8.352;2023-05-20T01:36:00;15.10;99.90
28761;DHT22;15917;50.014;8.352;2023-05-20T01:38:26;15.10;99.90
28761;DHT22;15917;50.014;8.352;2023-05-20T01:40:52;15.00;99.90
28761;DHT22;15917;50.014;8.352;2023-05-20T01:43:18;15.00;99.90
28761;DHT22;15917;50.014;8.352;2023-05-20T01:45:45;14.90;99.90
28761;DHT22;15917;50.014;8.352;2023-05-20T01:48:11;14.90;99.90
28761;DHT22;15917;50.014;8.352;2023-05-20T01:50:37;14.80;99.90
28761;DHT22;15917;50.014;8.352;2023-05-20T01:53:03;14.80;99.90
28761;DHT22;15917;50.014;8.352;2023-05-20T01:55:29;14.80;99.90
28761;DHT22;15917;50.014;8.352;2023-05-20T01:57:55;14.80;99.90
28761;DHT22;15917;50.014;8.352;2023-05-20T02:00:21;14.70;99.90
28761;DHT22;15917;50.014;8.352;2023-05-20T02:02:47;14.70;99.90
28761;DHT22;15917;50.014;8.352;2023-05-20T02:05:13;14.70;99.90
28761;DHT22;15917;50.014;8.352;2023-05-20T02:07:41;14.60;99.90
28761;DHT22;15917;50.014;8.352;2023-05-20T02:10:07;14.60;99.90
28761;DHT22;15917;50.014;8.352;2023-05-20T02:12:33;14.60;99.90
28761;DHT22;15917;50.014;8.352;2023-05-20T02:14:59;14.60;99.90
28761;DHT22;15917;50.014;8.352;2023-05-20T02:17:25;14.60;99.90
28761;DHT22;15917;50.014;8.352;2023-05-20T02:19:51;14.60;99.90
28761;DHT22;15917;50.014;8.352;2023-05-20T02:22:17;14.60;99.90
28761;DHT22;15917;50.014;8.352;2023-05-20T02:24:43;14.60;99.90
28761;DHT22;15917;50.014;8.352;2023-05-20T02:27:08;14.50;99.90
28761;DHT22;15917;50.014;8.352;2023-05-20T02:29:34;14.50;99.90
28761;DHT22;15917;50.014;8.352;2023-05-20T02:32:00;14.50;99.90
28761;DHT22;15917;50.014;8.352;2023-05-20T02:34:27;14.50;99.90
28761;DHT22;15917;50.014;8.352;2023-05-20T02:36:54;14.40;99.90
28761;DHT22;15917;50.014;8.352;2023-05-20T02:39:21;14.40;99.90
28761;DHT22;15917;50.014;8.352;2023-05-20T02:41:46;14.50;99.90
28761;DHT22;15917;50.014;8.352;2023-05-20T02:44:12;14.40;99.90
28761;DHT22;15917;50.014;8.352;2023-05-20T02:46:38;14.40;99.90
28761;DHT22;15917;50.014;8.352;2023-05-20T02:49:11;14.40;99.90
28761;DHT22;15917;50.014;8.352;2023-05-20T02:51:37;14.40;99.90
28761;DHT22;15917;50.014;8.352;2023-05-20T02:54:02;14.40;99.90
28761;DHT22;15917;50.014;8.352;2023-05-20T02:56:28;14.40;99.90
28761;DHT22;15917;50.014;8.352;2023-05-20T02:58:53;14.50;99.90
28761;DHT22;15917;50.014;8.352;2023-05-20T03:01:19;14.50;99.90
28761;DHT22;15917;50.014;8.352;2023-05-20T03:03:45;14.50;99.90
28761;DHT22;15917;50.014;8.352;2023-05-20T03:06:11;14.50;99.90
28761;DHT22;15917;50.014;8.352;2023-05-20T03:08:37;14.50;99.90
28761;DHT22;15917;50.014;8.352;2023-05-20T03:11:04;14.50;99.90
28761;DHT22;15917;50.014;8.352;2023-05-20T03:13:29;14.60;99.90
28761;DHT22;15917;50.014;8.352;2023-05-20T03:15:57;14.50;99.90
28761;DHT22;15917;50.014;8.352;2023-05-20T03:18:22;14.60;99.90
28761;DHT22;15917;50.014;8.352;2023-05-20T03:20:48;14.60;99.90
28761;DHT22;15917;50.014;8.352;2023-05-20T03:23:14;14.60;99.90
28761;DHT22;15917;50.014;8.352;2023-05-20T03:25:40;14.60;99.90
28761;DHT22;15917;50.014;8.352;2023-05-20T03:28:05;14.60;99.90
28761;DHT22;15917;50.014;8.352;2023-05-20T03:30:33;14.70;99.90
28761;DHT22;15917;50.014;8.352;2023-05-20T03:32:59;14.70;99.90
28761;DHT22;15917;50.014;8.352;2023-05-20T03:35:27;14.70;99.90
28761;DHT22;15917;50.014;8.352;2023-05-20T03:37:53;14.70;99.90
28761;DHT22;15917;50.014;8.352;2023-05-20T03:40:22;14.70;99.90
28761;DHT22;15917;50.014;8.352;2023-05-20T03:42:48;14.70;99.90
28761;DHT22;15917;50.014;8.352;2023-05-20T03:45:16;14.70;99.90
28761;DHT22;15917;50.014;8.352;2023-05-20T03:47:51;14.70;99.90
28761;DHT22;15917;50.014;8.352;2023-05-20T03:50:17;14.70;99.90
28761;DHT22;15917;50.014;8.352;2023-05-20T03:52:43;14.70;99.90
28761;DHT22;15917;50.014;8.352;2023-05-20T03:55:09;14.70;99.90
28761;DHT22;15917;50.014;8.352;2023-05-20T03:57:35;14.60;99.90
28761;DHT22;15917;50.014;8.352;2023-05-20T04:00:02;14.60;99.90
28761;DHT22;15917;50.014;8.352;2023-05-20T04:02:30;14.70;99.90
28761;DHT22;15917;50.014;8.352;2023-05-20T04:04:56;14.60;99.90
28761;DHT22;15917;50.014;8.352;2023-05-20T04:07:22;14.60;99.90
28761;DHT22;15917;50.014;8.352;2023-05-20T04:09:48;14.60;99.90
28761;DHT22;15917;50.014;8.352;2023-05-20T04:12:14;14.60;99.90
28761;DHT22;15917;50.014;8.352;2023-05-20T04:14:40;14.60;99.90
28761;DHT22;15917;50.014;8.352;2023-05-20T04:17:07;14.60;99.90
28761;DHT22;15917;50.014;8.352;2023-05-20T04:19:32;14.60;99.90
28761;DHT22;15917;50.014;8.352;2023-05-20T04:21:59;14.60;99.90
28761;DHT22;15917;50.014;8.352;2023-05-20T04:24:25;14.60;99.90
28761;DHT22;15917;50.014;8.352;2023-05-20T04:26:52;14.60;99.90
28761;DHT22;15917;50.014;8.352;2023-05-20T04:29:18;14.50;99.90
28761;DHT22;15917;50.014;8.352;2023-05-20T04:31:47;14.60;99.90
28761;DHT22;15917;50.014;8.352;2023-05-20T04:34:13;14.60;99.90
28761;DHT22;15917;50.014;8.352;2023-05-20T04:36:40;14.60;99.90
28761;DHT22;15917;50.014;8.352;2023-05-20T04:39:06;14.60;99.90
28761;DHT22;15917;50.014;8.352;2023-05-20T04:41:32;14.60;99.90
28761;DHT22;15917;50.014;8.352;2023-05-20T04:43:58;14.60;99.90
28761;DHT22;15917;50.014;8.352;2023-05-20T04:46:26;14.70;99.90
28761;DHT22;15917;50.014;8.352;2023-05-20T04:48:52;14.70;99.90
28761;DHT22;15917;50.014;8.352;2023-05-20T04:51:19;14.70;99.90
28761;DHT22;15917;50.014;8.352;2023-05-20T04:53:44;14.80;99.90
28761;DHT22;15917;50.014;8.352;2023-05-20T04:56:11;14.80;99.90
28761;DHT22;15917;50.014;8.352;2023-05-20T04:58:36;14.90;99.90
28761;DHT22;15917;50.014;8.352;2023-05-20T05:01:02;14.90;99.90
28761;DHT22;15917;50.014;8.352;2023-05-20T05:03:28;14.90;99.90
28761;DHT22;15917;50.014;8.352;2023-05-20T05:05:56;14.90;99.90
28761;DHT22;15917;50.014;8.352;2023-05-20T05:08:23;14.90;99.90
28761;DHT22;15917;50.014;8.352;2023-05-20T05:10:50;14.90;99.90
28761;DHT22;15917;50.014;8.352;2023-05-20T05:13:16;14.90;99.90
28761;DHT22;15917;50.014;8.352;2023-05-20T05:15:42;14.90;99.90
28761;DHT22;15917;50.014;8.352;2023-05-20T05:18:07;14.90;99.90
28761;DHT22;15917;50.014;8.352;2023-05-20T05:20:35;14.90;99.90
28761;DHT22;15917;50.014;8.352;2023-05-20T05:23:00;14.90;99.90
28761;DHT22;15917;50.014;8.352;2023-05-20T05:25:26;14.90;99.90
28761;DHT22;15917;50.014;8.352;2023-05-20T05:27:52;14.90;99.90
28761;DHT22;15917;50.014;8.352;2023-05-20T05:30:20;14.90;99.90
28761;DHT22;15917;50.014;8.352;2023-05-20T05:32:48;14.90;99.90
28761;DHT22;15917;50.014;8.352;2023-05-20T05:35:14;14.90;99.90
28761;DHT22;15917;50.014;8.352;2023-05-20T05:37:40;14.90;99.90
28761;DHT22;15917;50.014;8.352;2023-05-20T05:40:07;15.00;99.90
28761;DHT22;15917;50.014;8.352;2023-05-20T05:42:33;15.10;99.90
28761;DHT22;15917;50.014;8.352;2023-05-20T05:45:00;15.20;99.90
28761;DHT22;15917;50.014;8.352;2023-05-20T05:47:27;15.30;99.90
28761;DHT22;15917;50.014;8.352;2023-05-20T05:49:57;15.50;99.90
28761;DHT22;15917;50.014;8.352;2023-05-20T05:52:25;15.70;99.90
28761;DHT22;15917;50.014;8.352;2023-05-20T05:54:51;15.80;99.90
28761;DHT22;15917;50.014;8.352;2023-05-20T05:57:17;15.90;99.90
28761;DHT22;15917;50.014;8.352;2023-05-20T05:59:43;16.00;99.90
28761;DHT22;15917;50.014;8.352;2023-05-20T06:02:08;16.00;99.90
28761;DHT22;15917;50.014;8.352;2023-05-20T06:04:35;16.10;99.90
28761;DHT22;15917;50.014;8.352;2023-05-20T06:07:01;16.10;99.90
28761;DHT22;15917;50.014;8.352;2023-05-20T06:09:26;16.10;99.90
28761;DHT22;15917;50.014;8.352;2023-05-20T06:11:53;16.10;99.90
28761;DHT22;15917;50.014;8.352;2023-05-20T06:14:19;16.00;99.90
28761;DHT22;15917;50.014;8.352;2023-05-20T06:16:45;16.00;99.90
28761;DHT22;15917;50.014;8.352;2023-05-20T06:19:11;16.00;99.90
28761;DHT22;15917;50.014;8.352;2023-05-20T06:21:36;15.90;99.90
28761;DHT22;15917;50.014;8.352;2023-05-20T06:24:03;15.90;99.90
28761;DHT22;15917;50.014;8.352;2023-05-20T06:26:29;15.90;99.90
28761;DHT22;15917;50.014;8.352;2023-05-20T06:28:57;15.90;99.90
28761;DHT22;15917;50.014;8.352;2023-05-20T06:31:24;15.90;99.90
28761;DHT22;15917;50.014;8.352;2023-05-20T06:33:51;16.00;99.90
28761;DHT22;15917;50.014;8.352;2023-05-20T06:36:16;15.90;99.90
28761;DHT22;15917;50.014;8.352;2023-05-20T06:38:42;16.00;99.90
28761;DHT22;15917;50.014;8.352;2023-05-20T06:41:10;16.00;99.90
28761;DHT22;15917;50.014;8.352;2023-05-20T06:43:36;16.10;99.90
28761;DHT22;15917;50.014;8.352;2023-05-20T06:46:28;16.10;99.90
28761;DHT22;15917;50.014;8.352;2023-05-20T06:48:58;16.20;99.90
28761;DHT22;15917;50.014;8.352;2023-05-20T06:51:26;16.30;99.90
28761;DHT22;15917;50.014;8.352;2023-05-20T06:53:53;16.30;99.90
28761;DHT22;15917;50.014;8.352;2023-05-20T06:56:20;16.40;99.90
28761;DHT22;15917;50.014;8.352;2023-05-20T06:58:46;16.40;99.90
28761;DHT22;15917;50.014;8.352;2023-05-20T07:01:13;16.40;99.90
28761;DHT22;15917;50.014;8.352;2023-05-20T07:03:39;16.40;99.90
28761;DHT22;15917;50.014;8.352;2023-05-20T07:06:05;16.40;99.90
28761;DHT22;15917;50.014;8.352;2023-05-20T07:08:30;16.50;99.90
28761;DHT22;15917;50.014;8.352;2023-05-20T07:10:57;16.60;99.90
28761;DHT22;15917;50.014;8.352;2023-05-20T07:13:23;16.70;99.90
28761;DHT22;15917;50.014;8.352;2023-05-20T07:15:50;16.80;99.90
28761;DHT22;15917;50.014;8.352;2023-05-20T07:18:16;16.90;99.90
28761;DHT22;15917;50.014;8.352;2023-05-20T07:20:45;16.80;99.90
28761;DHT22;15917;50.014;8.352;2023-05-20T07:23:23;16.70;99.90
28761;DHT22;15917;50.014;8.352;2023-05-20T07:25:52;16.70;99.90
28761;DHT22;15917;50.014;8.352;2023-05-20T07:28:19;16.70;99.90
28761;DHT22;15917;50.014;8.352;2023-05-20T07:30:45;16.80;99.90
28761;DHT22;15917;50.014;8.352;2023-05-20T07:33:26;16.70;99.90
28761;DHT22;15917;50.014;8.352;2023-05-20T07:35:52;16.70;99.90
28761;DHT22;15917;50.014;8.352;2023-05-20T07:38:19;16.70;99.90
28761;DHT22;15917;50.014;8.352;2023-05-20T07:40:49;16.70;99.90
28761;DHT22;15917;50.014;8.352;2023-05-20T07:43:15;16.80;99.90
28761;DHT22;15917;50.014;8.352;2023-05-20T07:45:41;17.10;99.90
28761;DHT22;15917;50.014;8.352;2023-05-20T07:48:07;17.30;99.90
28761;DHT22;15917;50.014;8.352;2023-05-20T07:50:33;17.40;99.90
28761;DHT22;15917;50.014;8.352;2023-05-20T07:52:59;17.40;99.90
28761;DHT22;15917;50.014;8.352;2023-05-20T07:55:27;17.40;99.90
28761;DHT22;15917;50.014;8.352;2023-05-20T07:57:55;17.60;99.90
28761;DHT22;15917;50.014;8.352;2023-05-20T08:00:21;17.60;99.90
28761;DHT22;15917;50.014;8.352;2023-05-20T08:02:47;17.60;99.90
28761;DHT22;15917;50.014;8.352;2023-05-20T08:05:18;17.60;99.90
28761;DHT22;15917;50.014;8.352;2023-05-20T08:07:45;17.50;99.90
28761;DHT22;15917;50.014;8.352;2023-05-20T08:10:12;17.60;99.90
28761;DHT22;15917;50.014;8.352;2023-05-20T08:12:38;17.70;99.90
28761;DHT22;15917;50.014;8.352;2023-05-20T08:15:04;17.80;99.90
28761;DHT22;15917;50.014;8.352;2023-05-20T08:17:31;17.80;99.90
28761;DHT22;15917;50.014;8.352;2023-05-20T08:19:57;17.80;99.90
28761;DHT22;15917;50.014;8.352;2023-05-20T08:22:23;18.00;99.90
28761;DHT22;15917;50.014;8.352;2023-05-20T08:24:49;18.20;99.90
28761;DHT22;15917;50.014;8.352;2023-05-20T08:27:14;18.30;99.90
28761;DHT22;15917;50.014;8.352;2023-05-20T08:29:43;18.30;99.90
28761;DHT22;15917;50.014;8.352;2023-05-20T08:32:10;18.50;99.90
28761;DHT22;15917;50.014;8.352;2023-05-20T08:34:35;18.60;99.90
28761;DHT22;15917;50.014;8.352;2023-05-20T08:37:01;18.70;99.90
28761;DHT22;15917;50.014;8.352;2023-05-20T08:39:27;18.80;99.90
28761;DHT22;15917;50.014;8.352;2023-05-20T08:41:56;18.70;99.90
28761;DHT22;15917;50.014;8.352;2023-05-20T08:44:23;18.70;99.90
28761;DHT22;15917;50.014;8.352;2023-05-20T08:46:50;18.70;99.90
28761;DHT22;15917;50.014;8.352;2023-05-20T08:49:18;18.80;99.90
28761;DHT22;15917;50.014;8.352;2023-05-20T08:51:45;18.80;99.90
28761;DHT22;15917;50.014;8.352;2023-05-20T08:54:12;18.80;99.90
28761;DHT22;15917;50.014;8.352;2023-05-20T08:56:39;18.70;99.90
28761;DHT22;15917;50.014;8.352;2023-05-20T08:59:07;18.80;99.90
28761;DHT22;15917;50.014;8.352;2023-05-20T09:01:37;18.90;99.90
28761;DHT22;15917;50.014;8.352;2023-05-20T09:04:04;18.90;99.90
28761;DHT22;15917;50.014;8.352;2023-05-20T09:06:44;18.90;99.90
28761;DHT22;15917;50.014;8.352;2023-05-20T09:09:11;18.80;99.90
28761;DHT22;15917;50.014;8.352;2023-05-20T09:11:38;19.00;99.90
28761;DHT22;15917;50.014;8.352;2023-05-20T09:14:05;19.10;99.90
28761;DHT22;15917;50.014;8.352;2023-05-20T09:16:30;19.30;99.90
28761;DHT22;15917;50.014;8.352;2023-05-20T09:18:56;19.40;99.90
28761;DHT22;15917;50.014;8.352;2023-05-20T09:21:28;19.50;99.90
28761;DHT22;15917;50.014;8.352;2023-05-20T09:23:54;19.60;99.90
28761;DHT22;15917;50.014;8.352;2023-05-20T09:26:22;19.60;99.90
28761;DHT22;15917;50.014;8.352;2023-05-20T09:28:49;19.40;99.90
28761;DHT22;15917;50.014;8.352;2023-05-20T09:31:15;19.30;99.90
28761;DHT22;15917;50.014;8.352;2023-05-20T09:33:41;19.20;99.90
28761;DHT22;15917;50.014;8.352;2023-05-20T09:36:07;19.10;99.90
28761;DHT22;15917;50.014;8.352;2023-05-20T09:38:36;19.00;99.90
28761;DHT22;15917;50.014;8.352;2023-05-20T09:41:06;19.00;99.90
28761;DHT22;15917;50.014;8.352;2023-05-20T09:43:34;19.00;99.90
28761;DHT22;15917;50.014;8.352;2023-05-20T09:46:01;19.10;99.90
28761;DHT22;15917;50.014;8.352;2023-05-20T09:48:27;19.40;99.90
28761;DHT22;15917;50.014;8.352;2023-05-20T09:50:56;19.80;99.90
28761;DHT22;15917;50.014;8.352;2023-05-20T09:53:25;20.30;99.90
28761;DHT22;15917;50.014;8.352;2023-05-20T09:55:51;20.40;99.90
28761;DHT22;15917;50.014;8.352;2023-05-20T09:58:19;20.50;99.90
28761;DHT22;15917;50.014;8.352;2023-05-20T10:00:45;20.40;99.90
28761;DHT22;15917;50.014;8.352;2023-05-20T10:03:11;20.10;99.90
28761;DHT22;15917;50.014;8.352;2023-05-20T10:05:42;19.90;99.90
28761;DHT22;15917;50.014;8.352;2023-05-20T10:11:00;19.80;99.90
28761;DHT22;15917;50.014;8.352;2023-05-20T10:13:49;19.80;99.90
28761;DHT22;15917;50.014;8.352;2023-05-20T10:19:00;19.80;99.90
28761;DHT22;15917;50.014;8.352;2023-05-20T10:21:29;19.70;99.90
28761;DHT22;15917;50.014;8.352;2023-05-20T10:24:05;19.60;99.90
28761;DHT22;15917;50.014;8.352;2023-05-20T10:26:54;19.50;99.90
28761;DHT22;15917;50.014;8.352;2023-05-20T10:29:20;19.40;99.90
28761;DHT22;15917;50.014;8.352;2023-05-20T10:31:51;19.40;99.90
28761;DHT22;15917;50.014;8.352;2023-05-20T10:34:19;19.40;99.90
28761;DHT22;15917;50.014;8.352;2023-05-20T10:39:30;19.30;99.90
28761;DHT22;15917;50.014;8.352;2023-05-20T10:42:07;19.30;99.90
28761;DHT22;15917;50.014;8.352;2023-05-20T10:44:44;19.40;99.90
28761;DHT22;15917;50.014;8.352;2023-05-20T10:47:11;19.60;99.90
28761;DHT22;15917;50.014;8.352;2023-05-20T10:49:44;19.70;99.90
28761;DHT22;15917;50.014;8.352;2023-05-20T10:52:11;19.70;99.90
28761;DHT22;15917;50.014;8.352;2023-05-20T10:54:47;19.80;99.90
28761;DHT22;15917;50.014;8.352;2023-05-20T10:57:19;20.00;99.90
28761;DHT22;15917;50.014;8.352;2023-05-20T10:59:46;20.50;99.90
28761;DHT22;15917;50.014;8.352;2023-05-20T11:02:14;20.70;99.90
28761;DHT22;15917;50.014;8.352;2023-05-20T11:04:44;20.90;99.90
28761;DHT22;15917;50.014;8.352;2023-05-20T11:07:10;21.10;99.90
28761;DHT22;15917;50.014;8.352;2023-05-20T11:09:36;21.30;99.90
28761;DHT22;15917;50.014;8.352;2023-05-20T11:12:01;21.30;99.90
28761;DHT22;15917;50.014;8.352;2023-05-20T11:14:28;21.40;99.90
28761;DHT22;15917;50.014;8.352;2023-05-20T11:16:58;21.40;99.90
28761;DHT22;15917;50.014;8.352;2023-05-20T11:19:24;21.40;99.90
28761;DHT22;15917;50.014;8.352;2023-05-20T11:21:51;21.60;99.90
28761;DHT22;15917;50.014;8.352;2023-05-20T11:24:24;21.80;99.90
28761;DHT22;15917;50.014;8.352;2023-05-20T11:26:51;21.80;99.90
28761;DHT22;15917;50.014;8.352;2023-05-20T11:29:17;22.10;99.90
28761;DHT22;15917;50.014;8.352;2023-05-20T11:31:44;22.20;99.90
28761;DHT22;15917;50.014;8.352;2023-05-20T11:34:10;22.30;99.90
28761;DHT22;15917;50.014;8.352;2023-05-20T11:36:43;22.50;99.90
28761;DHT22;15917;50.014;8.352;2023-05-20T11:39:10;22.30;99.90
28761;DHT22;15917;50.014;8.352;2023-05-20T11:41:36;22.60;99.90
28761;DHT22;15917;50.014;8.352;2023-05-20T11:44:03;23.00;99.90
28761;DHT22;15917;50.014;8.352;2023-05-20T11:46:29;23.00;99.90
28761;DHT22;15917;50.014;8.352;2023-05-20T11:48:56;23.20;99.90
28761;DHT22;15917;50.014;8.352;2023-05-20T11:51:26;23.30;99.90
28761;DHT22;15917;50.014;8.352;2023-05-20T11:53:52;23.40;99.90
28761;DHT22;15917;50.014;8.352;2023-05-20T11:56:19;23.40;99.90
28761;DHT22;15917;50.014;8.352;2023-05-20T11:58:46;23.20;99.90
28761;DHT22;15917;50.014;8.352;2023-05-20T12:01:12;23.30;99.90
28761;DHT22;15917;50.014;8.352;2023-05-20T12:03:37;23.30;99.90
28761;DHT22;15917;50.014;8.352;2023-05-20T12:06:03;23.30;99.90
28761;DHT22;15917;50.014;8.352;2023-05-20T12:08:29;23.30;99.90
28761;DHT22;15917;50.014;8.352;2023-05-20T12:10:54;23.30;99.90
28761;DHT22;15917;50.014;8.352;2023-05-20T12:13:20;22.90;99.90
28761;DHT22;15917;50.014;8.352;2023-05-20T12:15:47;22.80;99.90
28761;DHT22;15917;50.014;8.352;2023-05-20T12:18:13;22.60;99.90
28761;DHT22;15917;50.014;8.352;2023-05-20T12:20:38;22.60;99.90
28761;DHT22;15917;50.014;8.352;2023-05-20T12:23:04;22.60;99.90
28761;DHT22;15917;50.014;8.352;2023-05-20T12:25:30;22.60;99.90
28761;DHT22;15917;50.014;8.352;2023-05-20T12:27:56;22.90;99.90
28761;DHT22;15917;50.014;8.352;2023-05-20T12:30:22;23.10;99.90
28761;DHT22;15917;50.014;8.352;2023-05-20T12:32:49;23.40;99.90
28761;DHT22;15917;50.014;8.352;2023-05-20T12:35:15;23.30;99.90
28761;DHT22;15917;50.014;8.352;2023-05-20T12:37:42;22.70;99.90
28761;DHT22;15917;50.014;8.352;2023-05-20T12:40:10;22.10;99.90
28761;DHT22;15917;50.014;8.352;2023-05-20T12:42:38;21.70;99.90
28761;DHT22;15917;50.014;8.352;2023-05-20T12:45:04;21.40;99.90
28761;DHT22;15917;50.014;8.352;2023-05-20T12:47:34;21.50;99.90
28761;DHT22;15917;50.014;8.352;2023-05-20T12:50:00;21.80;99.90
28761;DHT22;15917;50.014;8.352;2023-05-20T12:52:26;22.10;99.90
28761;DHT22;15917;50.014;8.352;2023-05-20T12:54:55;22.20;99.90
28761;DHT22;15917;50.014;8.352;2023-05-20T12:57:24;22.10;99.90
28761;DHT22;15917;50.014;8.352;2023-05-20T12:59:50;22.40;99.90
28761;DHT22;15917;50.014;8.352;2023-05-20T13:02:16;22.60;99.90
28761;DHT22;15917;50.014;8.352;2023-05-20T13:04:41;22.90;99.90
28761;DHT22;15917;50.014;8.352;2023-05-20T13:07:07;23.10;99.90
28761;DHT22;15917;50.014;8.352;2023-05-20T13:09:32;23.20;99.90
28761;DHT22;15917;50.014;8.352;2023-05-20T13:11:59;23.30;99.90
28761;DHT22;15917;50.014;8.352;2023-05-20T13:14:25;23.20;99.90
28761;DHT22;15917;50.014;8.352;2023-05-20T13:16:51;23.20;99.90
28761;DHT22;15917;50.014;8.352;2023-05-20T13:19:20;23.30;99.90
28761;DHT22;15917;50.014;8.352;2023-05-20T13:21:47;23.60;99.90
28761;DHT22;15917;50.014;8.352;2023-05-20T13:24:13;23.50;99.90
28761;DHT22;15917;50.014;8.352;2023-05-20T13:26:38;23.60;99.90
28761;DHT22;15917;50.014;8.352;2023-05-20T13:29:04;23.70;99.90
28761;DHT22;15917;50.014;8.352;2023-05-20T13:31:30;23.80;99.90
28761;DHT22;15917;50.014;8.352;2023-05-20T13:33:55;23.90;99.90
28761;DHT22;15917;50.014;8.352;2023-05-20T13:36:23;24.10;99.90
28761;DHT22;15917;50.014;8.352;2023-05-20T13:38:49;23.80;99.90
28761;DHT22;15917;50.014;8.352;2023-05-20T13:41:14;23.90;99.90
28761;DHT22;15917;50.014;8.352;2023-05-20T13:43:40;23.90;99.90
28761;DHT22;15917;50.014;8.352;2023-05-20T13:46:06;24.00;99.90
28761;DHT22;15917;50.014;8.352;2023-05-20T13:48:32;24.10;99.90
28761;DHT22;15917;50.014;8.352;2023-05-20T13:50:58;24.10;99.90
28761;DHT22;15917;50.014;8.352;2023-05-20T13:53:26;24.10;99.90
28761;DHT22;15917;50.014;8.352;2023-05-20T13:55:52;24.20;99.90
28761;DHT22;15917;50.014;8.352;2023-05-20T13:58:17;24.20;99.90
28761;DHT22;15917;50.014;8.352;2023-05-20T14:00:43;24.30;99.90
28761;DHT22;15917;50.014;8.352;2023-05-20T14:03:09;24.30;99.90
28761;DHT22;15917;50.014;8.352;2023-05-20T14:05:36;24.10;99.90
28761;DHT22;15917;50.014;8.352;2023-05-20T14:08:02;24.10;99.90
28761;DHT22;15917;50.014;8.352;2023-05-20T14:10:27;24.10;99.90
28761;DHT22;15917;50.014;8.352;2023-05-20T14:12:54;24.10;99.90
28761;DHT22;15917;50.014;8.352;2023-05-20T14:15:20;24.10;99.90
28761;DHT22;15917;50.014;8.352;2023-05-20T14:17:46;24.00;99.90
28761;DHT22;15917;50.014;8.352;2023-05-20T14:20:12;24.00;99.90
28761;DHT22;15917;50.014;8.352;2023-05-20T14:22:37;23.90;99.90
28761;DHT22;15917;50.014;8.352;2023-05-20T14:25:04;24.00;99.90
28761;DHT22;15917;50.014;8.352;2023-05-20T14:27:29;23.90;99.90
28761;DHT22;15917;50.014;8.352;2023-05-20T14:29:55;23.80;99.90
28761;DHT22;15917;50.014;8.352;2023-05-20T14:32:21;23.70;99.90
28761;DHT22;15917;50.014;8.352;2023-05-20T14:34:46;23.50;99.90
28761;DHT22;15917;50.014;8.352;2023-05-20T14:37:12;23.40;99.90
28761;DHT22;15917;50.014;8.352;2023-05-20T14:39:39;23.50;99.90
28761;DHT22;15917;50.014;8.352;2023-05-20T14:42:05;23.40;99.90
28761;DHT22;15917;50.014;8.352;2023-05-20T14:44:31;23.40;99.90
28761;DHT22;15917;50.014;8.352;2023-05-20T14:46:56;23.20;99.90
28761;DHT22;15917;50.014;8.352;2023-05-20T14:49:22;23.30;99.90
28761;DHT22;15917;50.014;8.352;2023-05-20T14:51:48;23.30;99.90
28761;DHT22;15917;50.014;8.352;2023-05-20T14:54:14;23.20;99.90
28761;DHT22;15917;50.014;8.352;2023-05-20T14:56:41;23.00;99.90
28761;DHT22;15917;50.014;8.352;2023-05-20T14:59:07;23.00;99.90
28761;DHT22;15917;50.014;8.352;2023-05-20T15:01:34;22.90;99.90
28761;DHT22;15917;50.014;8.352;2023-05-20T15:03:59;23.00;99.90
28761;DHT22;15917;50.014;8.352;2023-05-20T15:06:25;23.10;99.90
28761;DHT22;15917;50.014;8.352;2023-05-20T15:08:51;23.10;99.90
28761;DHT22;15917;50.014;8.352;2023-05-20T15:11:17;22.90;99.90
28761;DHT22;15917;50.014;8.352;2023-05-20T15:13:43;22.60;99.90
28761;DHT22;15917;50.014;8.352;2023-05-20T15:16:11;22.60;99.90
28761;DHT22;15917;50.014;8.352;2023-05-20T15:18:37;22.70;99.90
28761;DHT22;15917;50.014;8.352;2023-05-20T15:21:02;22.90;99.90
28761;DHT22;15917;50.014;8.352;2023-05-20T15:23:28;22.90;99.90
28761;DHT22;15917;50.014;8.352;2023-05-20T15:25:54;22.80;99.90
28761;DHT22;15917;50.014;8.352;2023-05-20T15:28:20;22.50;99.90
28761;DHT22;15917;50.014;8.352;2023-05-20T15:30:49;22.30;99.90
28761;DHT22;15917;50.014;8.352;2023-05-20T15:33:15;22.10;99.90
28761;DHT22;15917;50.014;8.352;2023-05-20T15:35:41;22.00;99.90
28761;DHT22;15917;50.014;8.352;2023-05-20T15:38:06;21.80;99.90